East Farms, Washington
Current Conditions -  °F | °C
As of 8:53 AM on Wednesday 22 Oct 2014 (Local Time) from KSFF Reporting Station
Overcast Overcast  
Wind Chill: 53°   Ceiling: 7000
Heat Index: 53°   Visibility: 10mi
Dew Point: 39°   Wind: 7mph
Humidity: 59%   Direction: 60°ENE
Pressure: 29.92"   Gusts: NA
Location:  47.7153°N, 117.066°W
Report Text: KSFF 221553Z 06006KT 10SM OVC070 12/04 A2992 RMK AO2 SLP132 T01170039
Loading
Personal Weather Stations






























Interactive Weather Map New forecast layout! Learn more

10-Day Weather Forecast

Advertisements
Track Severe Weather on mobile